Time;durP1;ratioP1;P1;durP2;ratioP2;P2;SDS_P1;SDS_P2;PMS_P1;PMS_P2;Temp;Humidity;BMP_temperature;BMP_pressure;BME280_temperature;BME280_humidity;BME280_pressure;Samples;Min_cycle;Max_cycle;Signal;HPM_P1;HPM_P2
2021/11/02 13:02:37;;;;;;;3.17;0.80;;;15.10;63.20;;;;;;5064711;27;20480;-72
2021/11/02 13:05:11;;;;;;;8.88;1.15;;;15.40;96.20;;;;;;5042940;28;20043;-71
2021/11/02 13:07:39;;;;;;;6.88;1.30;;;15.10;62.80;;;;;;5045895;28;20365;-71
2021/11/02 13:10:20;;;;;;;5.15;1.20;;;13.50;91.10;;;;;;5034899;28;20049;-71
2021/11/02 13:12:52;;;;;;;6.75;1.60;;;15.10;62.30;;;;;;5041230;28;20100;-71
2021/11/02 13:15:19;;;;;;;3.30;0.80;;;15.50;99.90;;;;;;5045833;28;20041;-71
2021/11/02 13:17:48;;;;;;;5.20;1.10;;;14.80;99.60;;;;;;5046336;28;20403;-71
2021/11/02 13:20:35;;;;;;;6.88;1.20;;;16.00;95.90;;;;;;5045925;28;20040;-71
2021/11/02 13:23:02;;;;;;;8.85;1.30;;;;;;;;;;5043336;28;20029;-71
2021/11/02 13:25:41;;;;;;;5.18;1.00;;;15.20;63.50;;;;;;5047273;28;20028;-71
2021/11/02 13:28:08;;;;;;;8.07;1.10;;;15.30;63.70;;;;;;5046551;28;20094;-71
2021/11/02 13:30:43;;;;;;;4.97;1.05;;;15.30;63.20;;;;;;5047419;28;20029;-71
2021/11/02 13:33:19;;;;;;;6.47;1.20;;;15.30;63.00;;;;;;5041110;28;20030;-71
2021/11/02 13:35:48;;;;;;;8.18;1.40;;;15.30;62.60;;;;;;5044107;28;20021;-71
2021/11/02 13:38:24;;;;;;;11.70;1.42;;;15.20;62.80;;;;;;5044068;28;20021;-71
2021/11/02 13:40:53;;;;;;;8.65;1.27;;;15.10;63.60;;;;;;5038205;28;20635;-71
2021/11/02 13:43:48;;;;;;;6.43;1.20;;;15.00;63.50;;;;;;5040307;28;20051;-71
2021/11/02 13:46:17;;;;;;;9.05;1.30;;;14.90;63.80;;;;;;5041173;28;20033;-70
2021/11/02 13:48:43;;;;;;;5.70;1.38;;;14.80;64.80;;;;;;5041590;28;20052;-71
2021/11/02 13:51:12;;;;;;;5.20;1.20;;;14.80;64.90;;;;;;5041157;28;20037;-70
2021/11/02 13:53:39;;;;;;;5.10;1.20;;;14.70;64.80;;;;;;5045214;28;20029;-70
2021/11/02 13:56:13;;;;;;;8.32;1.58;;;14.80;65.30;;;;;;5045877;28;20531;-71
2021/11/02 13:58:40;;;;;;;4.22;0.70;;;14.70;65.70;;;;;;5042305;28;20033;-71
2021/11/02 14:01:14;;;;;;;7.03;1.23;;;14.70;65.20;;;;;;5040725;28;20049;-71
2021/11/02 14:03:49;;;;;;;6.97;1.10;;;14.70;64.70;;;;;;5040640;28;20025;-70
2021/11/02 14:06:21;;;;;;;7.30;1.05;;;14.70;65.00;;;;;;5040250;28;20041;-70
2021/11/02 14:08:48;;;;;;;5.18;1.00;;;14.70;65.00;;;;;;5042871;28;20056;-71
2021/11/02 14:11:31;;;;;;;7.00;1.20;;;14.70;64.80;;;;;;5043170;28;20029;-70
2021/11/02 14:13:57;;;;;;;4.47;0.85;;;14.70;64.50;;;;;;5040756;28;20393;-70
2021/11/02 14:16:41;;;;;;;4.78;0.95;;;14.60;63.80;;;;;;5027158;28;20034;-70
2021/11/02 14:19:32;;;;;;;8.07;1.15;;;14.50;63.80;;;;;;5026945;28;20467;-70
2021/11/02 14:22:07;;;;;;;4.78;1.20;;;14.40;64.20;;;;;;5030638;28;20045;-70
2021/11/02 14:24:44;;;;;;;6.68;1.20;;;14.30;64.20;;;;;;5026682;28;20037;-70
2021/11/02 14:27:12;;;;;;;3.85;1.10;;;14.20;64.20;;;;;;5028399;28;20431;-70
2021/11/02 14:29:57;;;;;;;4.65;1.40;;;14.20;64.50;;;;;;5029659;28;20104;-72
2021/11/02 14:32:39;;;;;;;4.35;1.20;;;14.20;64.40;;;;;;5030997;28;20037;-70
2021/11/02 14:35:09;;;;;;;3.28;1.20;;;14.10;64.60;;;;;;5027700;28;20033;-69
2021/11/02 14:37:49;;;;;;;4.30;0.98;;;14.10;64.50;;;;;;5032242;28;20034;-69
2021/11/02 14:40:35;;;;;;;4.75;1.25;;;14.10;64.70;;;;;;5030989;28;20044;-69
2021/11/02 14:43:21;;;;;;;5.07;1.58;;;14.00;64.70;;;;;;5032111;28;20021;-69
2021/11/02 14:46:03;;;;;;;3.97;1.20;;;14.00;64.60;;;;;;5031731;28;20099;-69
2021/11/02 14:48:53;;;;;;;6.65;1.05;;;14.00;64.80;;;;;;5031519;28;20029;-69
2021/11/02 14:51:22;;;;;;;3.45;1.30;;;14.00;64.90;;;;;;5030868;28;20038;-69
2021/11/02 14:53:49;;;;;;;5.38;1.20;;;14.00;65.00;;;;;;5031347;28;20025;-69
2021/11/02 14:56:35;;;;;;;7.32;1.90;;;14.00;65.60;;;;;;5015775;28;20030;-69
2021/11/02 14:59:07;;;;;;;4.45;1.20;;;14.00;66.00;;;;;;5028972;28;20556;-69
2021/11/02 15:01:32;;;;;;;5.78;1.40;;;14.00;65.90;;;;;;5031843;28;20060;-69
2021/11/02 15:04:04;;;;;;;3.88;1.23;;;13.90;66.50;;;;;;5031360;28;20100;-69
2021/11/02 15:06:55;;;;;;;4.47;1.40;;;13.90;66.50;;;;;;5030424;28;20025;-69
2021/11/02 15:09:28;;;;;;;;;;;13.80;66.70;;;;;;5031282;28;20040;-69
2021/11/02 15:11:53;;;;;;;3.22;1.25;;;13.80;68.20;;;;;;5031428;28;19944;-69
2021/11/02 15:14:31;;;;;;;7.53;1.50;;;13.80;67.50;;;;;;5030733;28;20883;-69
2021/11/02 15:17:00;;;;;;;9.82;1.63;;;13.70;67.80;;;;;;5028227;28;20079;-69
2021/11/02 15:19:29;;;;;;;6.53;1.40;;;13.60;67.70;;;;;;5031225;28;20401;-69
2021/11/02 15:22:06;;;;;;;5.40;1.60;;;13.60;68.00;;;;;;5029968;28;20063;-69
2021/11/02 15:24:35;;;;;;;5.68;1.60;;;13.60;68.20;;;;;;5028941;28;20028;-70
2021/11/02 15:27:01;;;;;;;8.38;2.03;;;13.60;68.30;;;;;;5029890;28;20100;-70
2021/11/02 15:29:30;;;;;;;5.15;1.75;;;13.60;68.30;;;;;;5020900;28;20546;-69
2021/11/02 15:32:10;;;;;;;6.47;2.15;;;13.60;68.60;;;;;;5027995;28;20020;-70
2021/11/02 15:34:46;;;;;;;8.02;2.25;;;13.60;68.70;;;;;;5031040;28;20037;-69
2021/11/02 15:37:15;;;;;;;7.10;2.55;;;13.60;68.70;;;;;;5029833;28;20492;-69
2021/11/02 15:39:42;;;;;;;4.63;1.98;;;13.60;68.80;;;;;;5030020;28;20021;-70
2021/11/02 15:42:24;;;;;;;6.82;2.58;;;13.60;68.90;;;;;;5030993;28;20061;-71
2021/11/02 15:44:52;;;;;;;7.88;2.70;;;13.60;69.20;;;;;;5030051;28;20413;-71
2021/11/02 15:47:20;;;;;;;7.65;2.38;;;13.50;69.40;;;;;;5019826;28;20021;-71
2021/11/02 15:50:00;;;;;;;8.63;2.10;;;13.50;69.50;;;;;;5024917;28;20438;-71
2021/11/02 15:52:31;;;;;;;6.03;2.50;;;13.50;70.00;;;;;;5028609;28;20029;-71
2021/11/02 15:55:03;;;;;;;;;;;13.40;69.80;;;;;;5026252;28;20029;-72
2021/11/02 15:57:41;;;;;;;6.18;2.10;;;13.40;69.90;;;;;;5024767;28;20364;-71
2021/11/02 16:00:11;;;;;;;6.72;2.00;;;13.40;69.90;;;;;;5024683;28;20543;-72
2021/11/02 16:02:38;;;;;;;6.38;1.70;;;13.40;70.10;;;;;;5028538;28;20029;-71
2021/11/02 16:05:29;;;;;;;9.45;1.75;;;13.40;70.40;;;;;;5027093;28;20021;-71
2021/11/02 16:07:56;;;;;;;7.25;2.22;;;13.30;70.50;;;;;;5026094;28;20053;-72
2021/11/02 16:10:25;;;;;;;5.35;1.70;;;13.40;70.50;;;;;;5025407;28;20112;-71
2021/11/02 16:12:51;;;;;;;8.27;2.22;;;13.30;70.40;;;;;;5028346;28;20499;-71
2021/11/02 16:15:26;;;;;;;8.55;2.00;;;13.30;70.50;;;;;;5028805;28;20484;-71
2021/11/02 16:17:58;;;;;;;7.47;1.85;;;13.30;70.70;;;;;;5041803;28;20456;-71
2021/11/02 16:20:36;;;;;;;8.95;2.00;;;13.30;71.10;;;;;;5028935;28;20087;-71
2021/11/02 16:23:06;;;;;;;7.03;2.10;;;13.30;71.10;;;;;;5026345;28;20040;-71
2021/11/02 16:25:37;;;;;;;5.73;2.30;;;13.20;71.10;;;;;;5026655;28;20063;-71
2021/11/02 16:28:12;;;;;;;6.13;2.10;;;13.20;71.30;;;;;;5028073;28;20025;-71
2021/11/02 16:30:48;;;;;;;5.15;2.00;;;13.10;71.40;;;;;;5023524;28;20079;-71
2021/11/02 16:33:15;;;;;;;5.63;2.22;;;13.10;72.50;;;;;;5025045;28;20064;-71
2021/11/02 16:35:51;;;;;;;7.03;2.42;;;13.10;83.50;;;;;;5028088;28;20537;-71
2021/11/02 16:38:27;;;;;;;7.78;2.25;;;10.10;80.50;;;;;;5029280;28;20558;-71
2021/11/02 16:41:04;;;;;;;9.27;3.00;;;13.00;71.90;;;;;;5026309;28;20511;-71
2021/11/02 16:43:45;;;;;;;8.05;2.42;;;13.80;76.10;;;;;;5024238;28;20025;-71
2021/11/02 16:46:28;;;;;;;5.75;2.72;;;13.70;82.60;;;;;;5026770;28;20044;-71
2021/11/02 16:48:59;;;;;;;8.23;2.30;;;14.40;84.50;;;;;;5024210;28;20121;-71
2021/11/02 16:51:48;;;;;;;7.03;2.47;;;12.90;72.40;;;;;;5025091;28;20030;-71
2021/11/02 16:54:18;;;;;;;9.32;2.60;;;11.60;84.60;;;;;;5022717;28;20084;-71
2021/11/02 16:57:04;;;;;;;7.15;2.70;;;12.70;83.60;;;;;;5027439;28;20030;-71
2021/11/02 17:00:01;;;;;;;12.18;2.60;;;12.80;72.00;;;;;;5022473;28;20835;-71
2021/11/02 17:02:35;;;;;;;10.18;2.80;;;12.20;82.50;;;;;;5016962;28;20059;-72
2021/11/02 17:05:35;;;;;;;8.77;2.75;;;13.60;73.40;;;;;;5024572;28;20022;-71
2021/11/02 17:08:09;;;;;;;10.27;2.40;;;12.90;82.50;;;;;;5023647;28;20531;-71
2021/11/02 17:10:39;;;;;;;9.50;2.28;;;12.90;73.30;;;;;;5025150;28;20034;-71
2021/11/02 17:13:13;;;;;;;6.38;2.30;;;12.90;84.10;;;;;;5027790;28;20056;-71
2021/11/02 17:16:09;;;;;;;4.90;2.40;;;12.90;73.60;;;;;;5024387;28;20401;-72
2021/11/02 17:18:52;;;;;;;6.22;2.60;;;12.90;73.60;;;;;;5015050;28;20046;-73
2021/11/02 17:21:24;;;;;;;7.72;2.97;;;14.00;85.40;;;;;;5023317;28;20120;-73
2021/11/02 17:23:51;;;;;;;8.57;2.80;;;12.80;73.70;;;;;;5016398;28;20030;-73
2021/11/02 17:26:18;;;;;;;5.38;2.50;;;12.90;73.80;;;;;;5026647;28;20152;-73
2021/11/02 17:28:49;;;;;;;6.75;2.50;;;12.90;74.00;;;;;;5029035;28;20033;-72
2021/11/02 17:31:17;;;;;;;6.47;2.42;;;13.70;85.80;;;;;;5023549;28;20026;-72
2021/11/02 17:33:44;;;;;;;6.30;2.50;;;12.80;74.10;;;;;;5023865;28;20385;-73
2021/11/02 17:36:12;;;;;;;8.43;2.92;;;13.60;86.70;;;;;;5024530;28;20038;-73
2021/11/02 17:38:41;;;;;;;7.45;2.60;;;12.80;74.30;;;;;;5027436;28;20117;-73
2021/11/02 17:41:08;;;;;;;5.95;2.70;;;12.70;73.60;;;;;;5024621;28;20400;-72
2021/11/02 17:43:36;;;;;;;5.72;2.28;;;13.20;86.80;;;;;;5028021;28;20431;-73
2021/11/02 17:46:04;;;;;;;8.45;2.67;;;10.40;86.40;;;;;;5026044;28;20036;-76
2021/11/02 17:48:31;;;;;;;7.03;2.55;;;12.70;73.80;;;;;;5029002;28;20025;-71
2021/11/02 17:50:57;;;;;;;7.40;2.88;;;12.70;74.60;;;;;;5035266;28;20030;-72
2021/11/02 17:53:24;;;;;;;6.82;2.90;;;12.80;74.80;;;;;;5033623;28;20029;-71
2021/11/02 17:55:53;;;;;;;7.85;2.97;;;12.70;74.80;;;;;;5027070;28;20037;-70
2021/11/02 17:58:21;;;;;;;7.65;3.15;;;12.70;74.90;;;;;;5031521;28;20037;-71
2021/11/02 18:00:50;;;;;;;6.47;2.88;;;12.80;86.70;;;;;;5025089;28;20078;-70
2021/11/02 18:03:17;;;;;;;10.10;4.30;;;12.70;75.10;;;;;;5030490;28;20056;-70
2021/11/02 18:05:44;;;;;;;7.70;3.20;;;13.80;86.20;;;;;;5017517;28;21616;-71
2021/11/02 18:08:10;;;;;;;9.25;3.28;;;12.60;75.10;;;;;;5031742;28;20056;-72
2021/11/02 18:10:36;;;;;;;8.80;3.40;;;12.50;74.80;;;;;;5032601;28;20029;-69
2021/11/02 18:13:06;;;;;;;7.43;3.00;;;12.30;86.30;;;;;;5032022;28;20100;-70
2021/11/02 18:15:33;;;;;;;7.55;3.35;;;13.30;86.50;;;;;;5026181;28;20416;-72
2021/11/02 18:18:03;;;;;;;7.50;2.58;;;12.60;85.60;;;;;;5032490;28;20167;-74
2021/11/02 18:20:31;;;;;;;7.13;2.53;;;12.20;74.60;;;;;;5016849;28;20080;-73
2021/11/02 18:22:57;;;;;;;4.45;2.35;;;12.20;86.30;;;;;;5029600;28;20033;-72
2021/11/02 18:25:24;;;;;;;5.32;2.50;;;13.20;89.20;;;;;;5029141;28;20086;-71
2021/11/02 18:27:52;;;;;;;5.22;2.40;;;10.80;87.00;;;;;;5031475;28;20511;-69
2021/11/02 18:30:18;;;;;;;7.00;3.30;;;12.80;89.60;;;;;;5030194;28;20032;-70
2021/11/02 18:32:44;;;;;;;7.03;2.40;;;;;;;;;;5030696;28;20476;-69
2021/11/02 18:35:12;;;;;;;7.18;1.90;;;11.20;88.20;;;;;;5031216;28;20417;-66
2021/11/02 18:37:42;;;;;;;6.30;1.85;;;13.20;87.90;;;;;;5025833;28;20037;-66
2021/11/02 18:40:10;;;;;;;;;;;11.90;75.60;;;;;;5028011;28;20056;-67
2021/11/02 18:42:39;;;;;;;6.18;2.38;;;12.10;88.20;;;;;;5030590;28;19909;-67
2021/11/02 18:45:06;;;;;;;3.50;1.25;;;11.80;75.80;;;;;;5029570;28;20267;-67
2021/11/02 18:47:32;;;;;;;5.05;0.98;;;11.80;75.90;;;;;;5030853;28;20029;-67
2021/11/02 18:49:58;;;;;;;2.47;1.10;;;11.80;75.70;;;;;;5026986;28;20101;-67
2021/11/02 18:52:24;;;;;;;4.72;1.30;;;11.70;75.50;;;;;;5029590;28;20159;-67
2021/11/02 18:54:50;;;;;;;3.03;0.98;;;9.70;83.50;;;;;;5028747;28;20120;-67
2021/11/02 18:57:16;;;;;;;3.33;1.02;;;12.70;85.00;;;;;;5026082;28;20576;-67
2021/11/02 18:59:42;;;;;;;2.55;0.90;;;11.60;75.70;;;;;;5025937;28;20159;-66
2021/11/02 19:02:08;;;;;;;2.38;0.98;;;11.60;75.90;;;;;;5026335;28;20053;-65
2021/11/02 19:04:34;;;;;;;5.70;1.25;;;11.60;76.00;;;;;;5027122;28;20032;-65
2021/11/02 19:07:01;;;;;;;4.00;1.05;;;11.60;86.50;;;;;;5033599;28;20404;-65
2021/11/02 19:09:28;;;;;;;2.42;1.10;;;11.50;76.10;;;;;;5027151;28;20481;-65
2021/11/02 19:11:54;;;;;;;2.70;1.00;;;11.30;87.40;;;;;;5015201;28;20036;-65
2021/11/02 19:14:20;;;;;;;3.15;1.00;;;10.50;87.20;;;;;;5013871;28;20101;-65
2021/11/02 19:16:46;;;;;;;3.17;1.10;;;13.90;90.10;;;;;;5028137;28;20563;-65
2021/11/02 19:19:12;;;;;;;3.90;1.00;;;12.30;87.30;;;;;;5018298;28;20021;-65
2021/11/02 19:21:39;;;;;;;3.17;1.20;;;11.50;76.30;;;;;;5016617;28;20513;-65
2021/11/02 19:24:05;;;;;;;2.97;0.95;;;9.00;87.50;;;;;;5019037;28;20079;-65
2021/11/02 19:26:32;;;;;;;5.10;1.10;;;12.10;88.00;;;;;;5019223;28;20107;-65
2021/11/02 19:28:58;;;;;;;14.88;9.20;;;11.40;76.30;;;;;;5026323;28;20033;-65
2021/11/02 19:31:24;;;;;;;40.72;29.90;;;11.10;87.50;;;;;;5022905;28;20022;-65
2021/11/02 19:33:52;;;;;;;64.40;44.08;;;11.40;87.80;;;;;;5030269;28;20045;-65
2021/11/02 19:36:20;;;;;;;71.53;48.13;;;11.40;76.30;;;;;;5030186;28;20427;-65
2021/11/02 19:38:46;;;;;;;8.52;5.55;;;11.50;88.90;;;;;;5030473;28;20041;-65
2021/11/02 19:41:12;;;;;;;7.05;3.45;;;11.50;88.50;;;;;;5025372;28;20103;-65
2021/11/02 19:43:40;;;;;;;18.58;11.55;;;9.80;87.70;;;;;;5031720;28;20025;-65
2021/11/02 19:46:07;;;;;;;5.13;2.10;;;11.70;89.40;;;;;;5030235;28;20365;-65
2021/11/02 19:48:33;;;;;;;4.05;1.50;;;12.00;89.30;;;;;;5025197;28;20058;-65
2021/11/02 19:50:59;;;;;;;3.53;1.33;;;11.90;90.30;;;;;;5018337;28;20022;-65
2021/11/02 19:53:30;;;;;;;70.57;41.38;;;;;;;;;;5029191;28;20025;-65
2021/11/02 19:55:56;;;;;;;25.75;22.98;;;12.60;91.10;;;;;;5027126;28;20033;-65
2021/11/02 19:58:22;;;;;;;14.27;12.77;;;11.20;90.70;;;;;;5017894;28;20033;-65
2021/11/02 20:00:49;;;;;;;5.60;2.70;;;11.60;90.70;;;;;;5019143;28;20041;-65
2021/11/02 20:03:15;;;;;;;3.63;1.80;;;11.40;91.50;;;;;;5028056;28;20030;-65
2021/11/02 20:05:43;;;;;;;4.53;1.95;;;11.30;76.00;;;;;;5015985;28;20099;-65
2021/11/02 20:08:22;;;;;;;4.22;1.50;;;11.70;91.30;;;;;;5029740;28;20029;-65
2021/11/02 20:10:50;;;;;;;3.78;1.60;;;12.30;91.60;;;;;;5015111;28;20461;-65
2021/11/02 20:13:18;;;;;;;4.10;1.45;;;12.00;91.10;;;;;;5028564;28;20116;-65
2021/11/02 20:15:46;;;;;;;4.88;2.20;;;11.70;76.40;;;;;;5030066;28;20109;-65
2021/11/02 20:18:14;;;;;;;3.97;1.98;;;12.40;85.00;;;;;;5029758;28;20022;-65
2021/11/02 20:20:40;;;;;;;4.22;2.00;;;11.50;91.90;;;;;;5028246;28;20415;-65
2021/11/02 20:23:07;;;;;;;4.82;2.10;;;12.30;91.00;;;;;;5015591;28;20041;-65
2021/11/02 20:25:34;;;;;;;5.97;2.35;;;10.50;89.50;;;;;;5029285;28;20056;-65
2021/11/02 20:28:03;;;;;;;3.80;1.70;;;9.40;90.00;;;;;;5029051;28;20025;-65
2021/11/02 20:30:30;;;;;;;5.70;1.67;;;11.80;90.80;;;;;;5029527;28;20036;-65
2021/11/02 20:32:56;;;;;;;5.95;3.45;;;11.50;90.60;;;;;;5029717;28;20037;-65
2021/11/02 20:35:23;;;;;;;4.40;2.10;;;12.00;90.90;;;;;;5029650;28;20052;-66
2021/11/02 20:37:50;;;;;;;4.60;1.30;;;;;;;;;;5030225;28;20033;-65
2021/11/02 20:40:16;;;;;;;3.45;1.33;;;11.60;91.00;;;;;;5029521;28;20022;-66
2021/11/02 20:42:55;;;;;;;2.80;1.20;;;12.20;91.30;;;;;;5029279;28;20039;-65
2021/11/02 20:45:21;;;;;;;5.18;1.40;;;12.50;91.60;;;;;;5028611;28;20021;-65
2021/11/02 20:47:55;;;;;;;5.03;1.42;;;11.50;91.90;;;;;;5029457;28;20036;-65
2021/11/02 20:50:23;;;;;;;5.50;1.35;;;11.60;91.50;;;;;;5020681;28;20026;-65
2021/11/02 20:52:49;;;;;;;4.85;1.45;;;11.30;92.10;;;;;;5029691;28;20090;-65
2021/11/02 20:55:16;;;;;;;5.55;1.60;;;11.00;76.80;;;;;;5029326;28;20068;-65
2021/11/02 20:57:42;;;;;;;4.25;1.50;;;9.50;91.10;;;;;;5028798;28;20029;-65
2021/11/02 21:00:10;;;;;;;6.40;2.15;;;11.20;91.90;;;;;;5028810;28;20032;-65
2021/11/02 21:02:36;;;;;;;5.70;2.00;;;11.20;91.20;;;;;;5027418;28;20503;-65
2021/11/02 21:05:04;;;;;;;4.25;1.70;;;11.70;91.10;;;;;;5019304;28;20021;-65
2021/11/02 21:07:34;;;;;;;5.28;1.85;;;10.80;77.10;;;;;;5018228;28;20057;-65
2021/11/02 21:10:10;;;;;;;4.75;2.00;;;12.30;80.20;;;;;;5021352;28;20440;-66
2021/11/02 21:12:39;;;;;;;4.00;2.13;;;12.00;92.10;;;;;;5022407;28;20017;-65
2021/11/02 21:15:06;;;;;;;4.93;2.40;;;10.80;78.10;;;;;;5028862;28;20021;-66
2021/11/02 21:17:35;;;;;;;4.78;2.80;;;12.40;87.10;;;;;;5029277;28;20017;-66
2021/11/02 21:20:06;;;;;;;6.68;2.67;;;10.70;78.20;;;;;;5030225;28;20117;-66
2021/11/02 21:22:33;;;;;;;5.88;2.60;;;10.70;78.20;;;;;;5029929;28;20138;-66
2021/11/02 21:25:00;;;;;;;7.22;2.55;;;10.70;78.40;;;;;;5025851;28;20108;-66
2021/11/02 21:27:26;;;;;;;6.85;2.90;;;10.60;78.40;;;;;;5025243;28;20025;-66
2021/11/02 21:29:53;;;;;;;6.15;2.50;;;10.60;78.40;;;;;;5033138;28;20546;-66
2021/11/02 21:32:21;;;;;;;5.88;2.33;;;10.60;78.50;;;;;;5032022;28;20041;-66
2021/11/02 21:34:49;;;;;;;5.10;2.63;;;10.60;78.50;;;;;;5019169;28;20555;-66
2021/11/02 21:37:17;;;;;;;5.43;2.85;;;10.60;78.60;;;;;;5028206;28;20090;-65
2021/11/02 21:39:43;;;;;;;5.88;3.10;;;10.60;78.60;;;;;;5031073;28;20026;-66
2021/11/02 21:42:17;;;;;;;5.35;2.72;;;10.70;78.60;;;;;;5022288;28;20795;-65
2021/11/02 21:44:50;;;;;;;7.65;2.40;;;10.60;78.50;;;;;;5021943;28;20523;-66
2021/11/02 21:47:22;;;;;;;5.82;2.35;;;10.20;87.70;;;;;;5030294;28;20504;-65
2021/11/02 21:50:03;;;;;;;4.45;2.40;;;11.10;88.40;;;;;;5030437;28;20061;-65
2021/11/02 21:52:32;;;;;;;4.97;2.33;;;10.50;78.60;;;;;;5031540;28;20045;-65
2021/11/02 21:55:06;;;;;;;5.38;2.50;;;10.50;78.70;;;;;;5027372;28;20033;-65
2021/11/02 21:58:13;;;;;;;5.40;2.90;;;10.40;78.80;;;;;;5023411;28;20030;-65
2021/11/02 22:00:46;;;;;;;4.88;2.70;;;10.40;78.80;;;;;;5004980;28;20116;-66
2021/11/02 22:03:18;;;;;;;5.07;2.80;;;11.60;89.30;;;;;;5013332;28;20029;-66
2021/11/02 22:05:48;;;;;;;5.72;2.90;;;10.30;78.90;;;;;;5011836;28;20042;-66
2021/11/02 22:08:17;;;;;;;4.70;2.70;;;10.50;89.20;;;;;;5011939;28;20022;-66
2021/11/02 22:10:46;;;;;;;5.63;2.80;;;10.30;79.10;;;;;;5011665;28;20040;-66
2021/11/02 22:13:18;;;;;;;5.30;3.00;;;10.30;79.20;;;;;;5011258;28;20026;-65
2021/11/02 22:15:51;;;;;;;6.65;2.90;;;10.30;79.30;;;;;;5011411;28;20405;-65
2021/11/02 22:18:23;;;;;;;7.45;3.30;;;9.90;89.60;;;;;;5011624;28;20048;-65
2021/11/02 22:20:53;;;;;;;7.55;3.25;;;10.30;79.40;;;;;;5011216;28;20176;-65
2021/11/02 22:23:22;;;;;;;5.50;3.40;;;10.30;89.50;;;;;;5010284;28;20029;-65
2021/11/02 22:25:51;;;;;;;10.18;3.80;;;10.30;79.40;;;;;;5008219;28;20173;-65
2021/11/02 22:28:24;;;;;;;5.30;3.50;;;10.50;89.80;;;;;;5011463;28;20022;-65
2021/11/02 22:31:00;;;;;;;10.70;4.63;;;11.30;89.90;;;;;;5011169;28;20065;-66
2021/11/02 22:33:27;;;;;;;7.72;3.83;;;11.20;85.90;;;;;;5010038;28;20034;-65
2021/11/02 22:35:53;;;;;;;10.43;3.58;;;11.00;89.20;;;;;;5012560;28;20026;-65
2021/11/02 22:38:19;;;;;;;7.63;3.80;;;10.30;79.50;;;;;;5028683;28;20037;-65
2021/11/02 22:40:46;;;;;;;6.43;3.70;;;10.40;79.60;;;;;;5033368;28;20041;-65
2021/11/02 22:43:12;;;;;;;9.35;3.65;;;10.30;79.60;;;;;;5031246;28;20032;-66
2021/11/02 22:45:38;;;;;;;9.45;3.63;;;12.00;91.00;;;;;;5026669;28;20022;-65
2021/11/02 22:48:06;;;;;;;7.53;3.25;;;10.30;79.70;;;;;;5016165;28;20018;-65
2021/11/02 22:50:34;;;;;;;7.15;3.28;;;10.40;79.70;;;;;;5031346;28;20024;-66
2021/11/02 22:53:02;;;;;;;6.30;3.80;;;10.40;79.70;;;;;;5032284;28;20033;-65
2021/11/02 22:55:31;;;;;;;6.72;3.72;;;10.40;79.70;;;;;;5020887;28;20080;-65
2021/11/02 22:57:58;;;;;;;7.25;3.38;;;10.10;89.70;;;;;;5027561;28;20021;-65
2021/11/02 23:00:40;;;;;;;8.20;3.78;;;10.40;79.80;;;;;;5030750;28;20044;-65
2021/11/02 23:03:08;;;;;;;6.20;3.10;;;11.10;82.10;;;;;;5030096;28;20037;-65
2021/11/02 23:05:39;;;;;;;6.88;3.55;;;10.30;80.60;;;;;;5028892;28;20029;-65
2021/11/02 23:08:07;;;;;;;4.93;3.08;;;10.40;79.70;;;;;;5031594;28;20026;-65
2021/11/02 23:10:33;;;;;;;5.38;3.10;;;10.90;90.00;;;;;;5031457;28;20504;-65
2021/11/02 23:12:59;;;;;;;5.28;3.10;;;10.40;79.80;;;;;;5021046;28;20045;-65
2021/11/02 23:15:25;;;;;;;8.18;3.40;;;10.90;91.10;;;;;;5027386;28;20477;-65
2021/11/02 23:17:51;;;;;;;7.53;3.38;;;10.40;90.40;;;;;;5025453;28;20399;-65
2021/11/02 23:20:17;;;;;;;7.15;3.38;;;10.40;90.00;;;;;;5029688;28;20025;-65
2021/11/02 23:23:01;;;;;;;6.55;3.30;;;10.40;79.60;;;;;;5031441;28;20052;-65
2021/11/02 23:25:34;;;;;;;9.35;3.30;;;10.40;79.60;;;;;;5020477;28;20052;-65
2021/11/02 23:28:01;;;;;;;6.88;3.30;;;10.40;79.70;;;;;;5021275;28;20133;-65
2021/11/02 23:30:28;;;;;;;5.30;3.10;;;12.10;90.80;;;;;;5018054;28;20025;-65
2021/11/02 23:32:54;;;;;;;5.78;3.10;;;10.40;79.70;;;;;;5024997;28;20014;-65
2021/11/02 23:35:21;;;;;;;4.82;2.90;;;11.30;89.70;;;;;;5023852;28;20033;-65
2021/11/02 23:37:48;;;;;;;6.43;3.13;;;10.40;79.80;;;;;;5030962;28;20022;-65
2021/11/02 23:40:43;;;;;;;8.60;3.22;;;10.30;90.10;;;;;;5020692;28;20061;-65
2021/11/02 23:43:10;;;;;;;5.40;2.80;;;10.00;90.70;;;;;;5017893;28;20046;-65
2021/11/02 23:45:37;;;;;;;5.10;2.85;;;8.80;90.20;;;;;;5018361;28;20030;-65
2021/11/02 23:48:04;;;;;;;7.55;3.05;;;10.20;91.00;;;;;;5026697;28;20029;-65
2021/11/02 23:50:30;;;;;;;5.90;2.70;;;10.30;80.00;;;;;;5021937;28;20032;-65
2021/11/02 23:52:56;;;;;;;6.07;2.75;;;10.20;80.10;;;;;;5031019;28;20025;-65
2021/11/02 23:55:22;;;;;;;5.18;2.60;;;10.20;80.20;;;;;;5029929;28;20024;-65
2021/11/02 23:57:48;;;;;;;7.28;2.88;;;10.10;88.70;;;;;;5030636;28;20026;-65
